Time;durP1;ratioP1;P1;durP2;ratioP2;P2;SDS_P1;SDS_P2;PMS_P1;PMS_P2;Temp;Humidity;BMP_temperature;BMP_pressure;BME280_temperature;BME280_humidity;BME280_pressure;Samples;Min_cycle;Max_cycle;Signal;HPM_P1;HPM_P2
2023/03/12 00:01:08;;;;;;;;;;;11.60;63.50;;;;;;5111309;28;20027;-90
2023/03/12 00:03:33;;;;;;;;;;;11.50;63.40;;;;;;5095805;28;19974;-90
2023/03/12 00:06:01;;;;;;;;;;;11.50;62.10;;;;;;5077785;28;19957;-90
2023/03/12 00:08:27;;;;;;;;;;;11.50;61.60;;;;;;5096004;28;19941;-90
2023/03/12 00:10:52;;;;;;;;;;;11.40;62.80;;;;;;5096935;28;19993;-91
2023/03/12 00:13:18;;;;;;;;;;;11.40;62.60;;;;;;5096027;28;19942;-90
2023/03/12 00:15:43;;;;;;;;;;;11.40;62.70;;;;;;5095760;28;19938;-90
2023/03/12 00:18:09;;;;;;;;;;;11.40;62.40;;;;;;5095733;28;20431;-91
2023/03/12 00:20:34;;;;;;;;;;;11.40;62.90;;;;;;5109779;28;19952;-91
2023/03/12 00:23:00;;;;;;;;;;;11.40;61.60;;;;;;5116251;28;20025;-90
2023/03/12 00:25:25;;;;;;;;;;;11.30;60.80;;;;;;5115970;28;20038;-90
2023/03/12 00:27:51;;;;;;;;;;;11.20;60.80;;;;;;5115905;28;20084;-91
2023/03/12 00:30:16;;;;;;;;;;;11.10;60.70;;;;;;5104120;28;20012;-90
2023/03/12 00:32:42;;;;;;;;;;;11.10;61.20;;;;;;5095450;28;20452;-90
2023/03/12 00:35:08;;;;;;;;;;;10.90;61.50;;;;;;5095711;28;19939;-91
2023/03/12 00:37:34;;;;;;;;;;;10.90;62.10;;;;;;5095334;28;19945;-90
2023/03/12 00:40:01;;;;;;;;;;;10.90;63.40;;;;;;5085694;28;19951;-90
2023/03/12 00:42:27;;;;;;;;;;;10.90;64.60;;;;;;5115683;28;19973;-91
2023/03/12 00:44:52;;;;;;;;;;;11.00;65.10;;;;;;5115578;28;19940;-91
2023/03/12 00:47:18;;;;;;;;;;;11.00;65.80;;;;;;5115582;28;20481;-90
2023/03/12 00:49:43;;;;;;;;;;;11.00;66.00;;;;;;5090464;28;20411;-91
2023/03/12 00:52:09;;;;;;;;;;;10.90;66.40;;;;;;5095027;28;19949;-90
2023/03/12 00:54:34;;;;;;;;;;;10.70;67.50;;;;;;5095056;28;19985;-91
2023/03/12 00:57:00;;;;;;;;;;;10.80;67.90;;;;;;5094967;28;19947;-91
2023/03/12 00:59:26;;;;;;;;;;;10.80;67.90;;;;;;5098495;28;19949;-91
2023/03/12 01:01:51;;;;;;;;;;;10.70;68.00;;;;;;5115309;28;19991;-91
2023/03/12 01:04:17;;;;;;;;;;;10.80;68.30;;;;;;5115079;28;19973;-90
2023/03/12 01:06:42;;;;;;;;;;;10.70;68.60;;;;;;5115172;28;19943;-90
2023/03/12 01:09:08;;;;;;;;;;;10.70;69.20;;;;;;5113831;28;19985;-90
2023/03/12 01:11:34;;;;;;;;;;;10.70;69.70;;;;;;5094706;28;20027;-90
2023/03/12 01:14:00;;;;;;;;;;;10.60;70.00;;;;;;5094677;28;19965;-91
2023/03/12 01:16:28;;;;;;;;;;;10.60;70.20;;;;;;5094625;28;19935;-91
2023/03/12 01:18:58;;;;;;;;;;;10.60;70.10;;;;;;5094585;28;19984;-90
2023/03/12 01:21:24;;;;;;;;;;;10.60;69.60;;;;;;5114163;28;20036;-91
2023/03/12 01:23:50;;;;;;;;;;;10.60;69.00;;;;;;5114488;28;19965;-91
2023/03/12 01:26:15;;;;;;;;;;;10.60;69.50;;;;;;5114778;28;20440;-90
2023/03/12 01:28:41;;;;;;;;;;;10.60;68.80;;;;;;5114617;28;19938;-91
2023/03/12 01:31:10;;;;;;;;;;;10.60;68.60;;;;;;5097315;28;20334;-90
2023/03/12 01:33:36;;;;;;;;;;;10.50;68.50;;;;;;5094511;28;19944;-91
2023/03/12 01:36:01;;;;;;;;;;;10.50;68.40;;;;;;5094453;28;20294;-91
2023/03/12 01:38:27;;;;;;;;;;;10.50;69.20;;;;;;5094223;28;19937;-91
2023/03/12 01:40:52;;;;;;;;;;;10.50;69.60;;;;;;5094334;28;19950;-91
2023/03/12 01:43:24;;;;;;;;;;;10.50;70.00;;;;;;5093994;28;19959;-91
2023/03/12 01:46:05;;;;;;;;;;;10.50;69.50;;;;;;5094047;28;20405;-91
2023/03/12 01:48:36;;;;;;;;;;;10.60;69.00;;;;;;5094066;28;19956;-91
2023/03/12 01:51:02;;;;;;;;;;;10.60;67.20;;;;;;5109694;28;19944;-91
2023/03/12 01:53:28;;;;;;;;;;;10.70;66.10;;;;;;5114176;28;20407;-91
2023/03/12 01:55:54;;;;;;;;;;;10.70;65.80;;;;;;5095978;28;19970;-91
2023/03/12 01:58:21;;;;;;;;;;;10.70;65.90;;;;;;5114253;28;19992;-90
2023/03/12 02:00:46;;;;;;;;;;;10.70;65.40;;;;;;5100262;28;19952;-90
2023/03/12 02:03:12;;;;;;;;;;;10.70;65.00;;;;;;5093381;28;19975;-91
2023/03/12 02:05:46;;;;;;;;;;;10.70;64.90;;;;;;5093771;28;19940;-91
2023/03/12 02:08:13;;;;;;;;;;;10.70;64.80;;;;;;5093675;28;19959;-91
2023/03/12 02:10:39;;;;;;;;;;;10.70;64.80;;;;;;5105647;28;19944;-91
2023/03/12 02:13:04;;;;;;;;;;;10.70;64.90;;;;;;5113879;28;19941;-90
2023/03/12 02:15:30;;;;;;;;;;;10.60;65.00;;;;;;5113957;28;20417;-90
2023/03/12 02:17:56;;;;;;;;;;;10.60;65.70;;;;;;5113891;28;19947;-91
2023/03/12 02:20:33;;;;;;;;;;;10.70;65.50;;;;;;5104202;28;19947;-90
2023/03/12 02:23:07;;;;;;;;;;;10.60;65.20;;;;;;5093330;28;19964;-90
2023/03/12 02:25:37;;;;;;;;;;;10.70;65.10;;;;;;5093432;28;19991;-90
2023/03/12 02:28:05;;;;;;;;;;;10.70;64.80;;;;;;5093422;28;19942;-90
2023/03/12 02:30:31;;;;;;;;;;;10.70;64.70;;;;;;5103772;28;20399;-91
2023/03/12 02:32:58;;;;;;;;;;;10.70;65.10;;;;;;5113020;28;20461;-91
2023/03/12 02:35:24;;;;;;;;;;;10.70;64.20;;;;;;5113031;28;20025;-90
2023/03/12 02:37:50;;;;;;;;;;;10.70;63.80;;;;;;5113634;28;20002;-90
2023/03/12 02:40:21;;;;;;;;;;;10.70;64.00;;;;;;5111898;28;19939;-91
2023/03/12 02:42:46;;;;;;;;;;;10.70;64.10;;;;;;5113467;28;20411;-90
2023/03/12 02:45:12;;;;;;;;;;;10.70;64.00;;;;;;5113602;28;19964;-90
2023/03/12 02:47:37;;;;;;;;;;;10.80;64.10;;;;;;5113555;28;20386;-90
2023/03/12 02:50:03;;;;;;;;;;;10.80;64.00;;;;;;5113504;28;19942;-90
2023/03/12 02:52:34;;;;;;;;;;;10.70;63.50;;;;;;5113114;28;20019;-91
2023/03/12 02:55:00;;;;;;;;;;;10.80;63.70;;;;;;5113192;28;19947;-91
2023/03/12 02:57:25;;;;;;;;;;;10.80;63.90;;;;;;5113477;28;19979;-91
2023/03/12 02:59:51;;;;;;;;;;;10.80;64.00;;;;;;5113428;28;20408;-90
2023/03/12 03:02:16;;;;;;;;;;;10.80;64.00;;;;;;5076755;28;20404;-90
2023/03/12 03:04:42;;;;;;;;;;;10.80;64.40;;;;;;5092741;28;19979;-90
2023/03/12 03:07:07;;;;;;;;;;;10.80;64.30;;;;;;5094166;28;19989;-91
2023/03/12 03:09:33;;;;;;;;;;;10.80;64.10;;;;;;5092988;28;20326;-90
2023/03/12 03:11:58;;;;;;;;;;;10.80;64.00;;;;;;5092970;28;20034;-91
2023/03/12 03:14:24;;;;;;;;;;;10.70;64.10;;;;;;5092900;28;19987;-91
2023/03/12 03:16:49;;;;;;;;;;;10.70;64.80;;;;;;5093469;28;19952;-90
2023/03/12 03:19:15;;;;;;;;;;;10.70;65.30;;;;;;5113256;28;19939;-91
2023/03/12 03:21:40;;;;;;;;;;;10.70;65.00;;;;;;5094995;28;19946;-91
2023/03/12 03:24:06;;;;;;;;;;;10.70;65.50;;;;;;5113149;28;19954;-90
2023/03/12 03:26:32;;;;;;;;;;;10.70;64.80;;;;;;5095015;28;19939;-91
2023/03/12 03:28:57;;;;;;;;;;;10.80;64.40;;;;;;5094405;28;20236;-91
2023/03/12 03:31:23;;;;;;;;;;;10.80;64.80;;;;;;5093067;28;19936;-91
2023/03/12 03:33:48;;;;;;;;;;;10.80;64.80;;;;;;5092740;28;20393;-90
2023/03/12 03:36:14;;;;;;;;;;;10.80;64.80;;;;;;5092718;28;20387;-90
2023/03/12 03:38:40;;;;;;;;;;;10.80;64.60;;;;;;5108337;28;20046;-90
2023/03/12 03:41:05;;;;;;;;;;;10.80;64.20;;;;;;5113050;28;19947;-90
2023/03/12 03:43:31;;;;;;;;;;;10.80;64.30;;;;;;5112870;28;20495;-90
2023/03/12 03:46:01;;;;;;;;;;;10.80;64.30;;;;;;5112951;28;20040;-90
2023/03/12 03:48:26;;;;;;;;;;;10.70;64.20;;;;;;5101962;28;20027;-90
2023/03/12 03:50:52;;;;;;;;;;;10.70;64.30;;;;;;5096304;28;19981;-90
2023/03/12 03:53:18;;;;;;;;;;;10.70;64.40;;;;;;5096200;28;19954;-90
2023/03/12 03:55:44;;;;;;;;;;;10.70;64.40;;;;;;5096411;28;19982;-90
2023/03/12 03:58:10;;;;;;;;;;;10.60;64.60;;;;;;5107041;28;20450;-90
2023/03/12 04:00:35;;;;;;;;;;;10.60;64.40;;;;;;5116438;28;19935;-91
2023/03/12 04:03:01;;;;;;;;;;;10.60;64.30;;;;;;5116334;28;19957;-91
2023/03/12 04:05:26;;;;;;;;;;;10.50;64.50;;;;;;5116188;28;19981;-90
2023/03/12 04:07:53;;;;;;;;;;;10.50;65.00;;;;;;5107746;28;19947;-91
2023/03/12 04:10:22;;;;;;;;;;;10.50;65.50;;;;;;5095924;28;19940;-91
2023/03/12 04:12:48;;;;;;;;;;;10.40;65.60;;;;;;5095900;28;19942;-90
2023/03/12 04:15:13;;;;;;;;;;;10.40;65.60;;;;;;5095799;28;20028;-91
2023/03/12 04:17:39;;;;;;;;;;;10.50;65.50;;;;;;5102203;28;19969;-90
2023/03/12 04:20:07;;;;;;;;;;;10.40;66.10;;;;;;5116125;28;19940;-90
2023/03/12 04:22:32;;;;;;;;;;;10.40;65.80;;;;;;5097673;28;19984;-91
2023/03/12 04:24:58;;;;;;;;;;;10.30;65.80;;;;;;5116033;28;19941;-91
2023/03/12 04:27:24;;;;;;;;;;;10.30;65.90;;;;;;5111827;28;19944;-90
2023/03/12 04:29:49;;;;;;;;;;;10.20;66.00;;;;;;5095599;28;19982;-90
2023/03/12 04:32:15;;;;;;;;;;;10.10;66.00;;;;;;5095460;28;19939;-90
2023/03/12 04:34:40;;;;;;;;;;;10.10;66.20;;;;;;5095691;28;19954;-90
2023/03/12 04:37:06;;;;;;;;;;;10.00;66.80;;;;;;5078329;28;20050;-91
2023/03/12 04:39:31;;;;;;;;;;;9.90;67.00;;;;;;5115786;28;19939;-90
2023/03/12 04:41:57;;;;;;;;;;;9.90;68.20;;;;;;5115742;28;19938;-90
2023/03/12 04:44:23;;;;;;;;;;;9.90;68.20;;;;;;5115814;28;20013;-91
2023/03/12 04:46:48;;;;;;;;;;;9.90;68.10;;;;;;5115679;28;19938;-90
2023/03/12 04:49:14;;;;;;;;;;;9.90;67.80;;;;;;5096192;28;20357;-90
2023/03/12 04:51:39;;;;;;;;;;;9.90;67.40;;;;;;5095143;28;20387;-90
2023/03/12 04:54:05;;;;;;;;;;;9.80;67.70;;;;;;5094932;28;19955;-90
2023/03/12 04:56:30;;;;;;;;;;;9.70;67.70;;;;;;5115144;28;20352;-91
2023/03/12 04:58:56;;;;;;;;;;;9.70;69.30;;;;;;5114512;28;20360;-90
2023/03/12 05:01:26;;;;;;;;;;;9.70;70.40;;;;;;5115190;28;19937;-91
2023/03/12 05:03:52;;;;;;;;;;;9.70;70.60;;;;;;5114945;28;20077;-90
2023/03/12 05:06:19;;;;;;;;;;;9.70;70.90;;;;;;5096302;28;20312;-91
2023/03/12 05:08:44;;;;;;;;;;;9.70;70.20;;;;;;5094795;28;19946;-90
2023/03/12 05:11:10;;;;;;;;;;;9.70;68.90;;;;;;5094761;28;20370;-90
2023/03/12 05:13:35;;;;;;;;;;;9.60;68.60;;;;;;5076556;28;20333;-90
2023/03/12 05:16:02;;;;;;;;;;;9.60;68.10;;;;;;5094914;28;19940;-90
2023/03/12 05:18:27;;;;;;;;;;;9.60;67.60;;;;;;5094629;28;20080;-90
2023/03/12 05:20:57;;;;;;;;;;;9.50;67.10;;;;;;5076339;28;20023;-91
2023/03/12 05:23:22;;;;;;;;;;;9.50;66.20;;;;;;5094596;28;19956;-91
2023/03/12 05:25:48;;;;;;;;;;;9.40;65.70;;;;;;5094486;28;19940;-91
2023/03/12 05:28:13;;;;;;;;;;;9.40;65.70;;;;;;5094428;28;19994;-91
2023/03/12 05:30:39;;;;;;;;;;;9.30;66.40;;;;;;5094308;28;19947;-90
2023/03/12 05:33:04;;;;;;;;;;;9.20;67.00;;;;;;5098855;28;19944;-90
2023/03/12 05:35:30;;;;;;;;;;;9.20;67.20;;;;;;5114691;28;19941;-90
2023/03/12 05:37:55;;;;;;;;;;;9.20;66.90;;;;;;5114607;28;20391;-91
2023/03/12 05:40:21;;;;;;;;;;;9.10;67.20;;;;;;5114545;28;19946;-91
2023/03/12 05:42:46;;;;;;;;;;;9.20;66.70;;;;;;5111966;28;19966;-90
2023/03/12 05:45:12;;;;;;;;;;;9.20;66.80;;;;;;5094121;28;19937;-91
2023/03/12 05:47:37;;;;;;;;;;;9.10;67.00;;;;;;5094080;28;19936;-91
2023/03/12 05:50:03;;;;;;;;;;;9.00;67.40;;;;;;5093991;28;19940;-91
2023/03/12 05:52:29;;;;;;;;;;;9.00;67.50;;;;;;5080007;28;20444;-90
2023/03/12 05:54:54;;;;;;;;;;;9.00;67.20;;;;;;5094079;28;20032;-90
2023/03/12 05:57:20;;;;;;;;;;;9.00;66.50;;;;;;5093901;28;20083;-91
2023/03/12 05:59:45;;;;;;;;;;;9.00;66.30;;;;;;5093803;28;19947;-90
2023/03/12 06:02:11;;;;;;;;;;;9.00;66.80;;;;;;5075422;28;19940;-90
2023/03/12 06:04:36;;;;;;;;;;;9.00;66.20;;;;;;5110554;28;19972;-90
2023/03/12 06:07:02;;;;;;;;;;;9.00;66.30;;;;;;5114096;28;19952;-91
2023/03/12 06:09:27;;;;;;;;;;;9.00;66.50;;;;;;5113865;28;19938;-91
2023/03/12 06:11:53;;;;;;;;;;;9.00;66.40;;;;;;5114045;28;19949;-91
2023/03/12 06:14:19;;;;;;;;;;;9.10;66.00;;;;;;5099225;28;19950;-91
2023/03/12 06:16:44;;;;;;;;;;;9.00;65.80;;;;;;5093587;28;20384;-91
2023/03/12 06:19:12;;;;;;;;;;;9.10;66.30;;;;;;5093552;28;19946;-91
2023/03/12 06:21:38;;;;;;;;;;;9.10;67.20;;;;;;5093548;28;19963;-90
2023/03/12 06:24:04;;;;;;;;;;;9.10;67.60;;;;;;5105333;28;20059;-91
2023/03/12 06:26:29;;;;;;;;;;;9.10;67.30;;;;;;5114119;28;20380;-90
2023/03/12 06:28:55;;;;;;;;;;;9.20;67.40;;;;;;5113759;28;20327;-90
2023/03/12 06:31:21;;;;;;;;;;;9.20;67.40;;;;;;5113738;28;19943;-91
2023/03/12 06:33:47;;;;;;;;;;;9.20;67.90;;;;;;5104087;28;19955;-90
2023/03/12 06:36:12;;;;;;;;;;;9.20;68.30;;;;;;5109102;28;19937;-91
2023/03/12 06:38:38;;;;;;;;;;;9.10;67.50;;;;;;5093294;28;20303;-91
2023/03/12 06:41:05;;;;;;;;;;;9.20;66.80;;;;;;5093255;28;20393;-91
2023/03/12 06:43:32;;;;;;;;;;;9.20;66.20;;;;;;5107911;28;20058;-90
2023/03/12 06:45:58;;;;;;;;;;;9.30;65.60;;;;;;5113511;28;19982;-90
2023/03/12 06:48:25;;;;;;;;;;;9.30;65.00;;;;;;5113764;28;19993;-90
2023/03/12 06:50:50;;;;;;;;;;;9.40;64.30;;;;;;5113508;28;20460;-90
2023/03/12 06:53:16;;;;;;;;;;;9.40;64.80;;;;;;5100290;28;20000;-91
2023/03/12 06:55:42;;;;;;;;;;;9.40;64.00;;;;;;5093063;28;20396;-90
2023/03/12 06:58:08;;;;;;;;;;;9.40;62.80;;;;;;5093090;28;19936;-91
2023/03/12 07:00:34;;;;;;;;;;;9.50;64.00;;;;;;5093020;28;19946;-90
2023/03/12 07:03:00;;;;;;;;;;;9.50;62.90;;;;;;5108869;22;19966;-91
2023/03/12 07:05:25;;;;;;;;;;;9.50;63.10;;;;;;5072550;28;19968;-90
2023/03/12 07:07:51;;;;;;;;;;;9.60;62.80;;;;;;5071450;28;19941;-91
2023/03/12 07:10:17;;;;;;;;;;;9.60;61.90;;;;;;5072766;28;20044;-91
2023/03/12 07:12:42;;;;;;;;;;;9.70;60.90;;;;;;5065007;28;19950;-91
2023/03/12 07:15:08;;;;;;;;;;;9.70;61.50;;;;;;5052659;28;19947;-90
2023/03/12 07:17:33;;;;;;;;;;;9.80;61.80;;;;;;5052884;28;20349;-91
2023/03/12 07:19:59;;;;;;;;;;;9.90;60.10;;;;;;5052647;28;19941;-91
2023/03/12 07:22:24;;;;;;;;;;;9.90;58.90;;;;;;5071375;28;20058;-90
2023/03/12 07:24:50;;;;;;;;;;;9.90;59.90;;;;;;5076485;28;20316;-91
2023/03/12 07:27:16;;;;;;;;;;;9.90;60.70;;;;;;5076414;28;19940;-90
2023/03/12 07:29:41;;;;;;;;;;;10.00;58.40;;;;;;5076395;28;19940;-91
2023/03/12 07:32:07;;;;;;;;;;;10.00;58.60;;;;;;5061218;28;19949;-90
2023/03/12 07:34:33;;;;;;;;;;;10.00;57.50;;;;;;5056286;28;20024;-91
2023/03/12 07:36:58;;;;;;;;;;;10.10;56.80;;;;;;5056533;28;20289;-90
2023/03/12 07:39:24;;;;;;;;;;;10.10;58.30;;;;;;5056161;28;19939;-91
2023/03/12 07:41:50;;;;;;;;;;;10.10;56.40;;;;;;5068199;28;19948;-90
2023/03/12 07:44:15;;;;;;;;;;;10.20;56.10;;;;;;5076033;28;19960;-91
2023/03/12 07:46:41;;;;;;;;;;;10.30;56.40;;;;;;5076106;28;19947;-90
2023/03/12 07:49:07;;;;;;;;;;;10.30;55.60;;;;;;5074588;28;19948;-90
2023/03/12 07:51:32;;;;;;;;;;;10.40;54.80;;;;;;5066268;28;19950;-91
2023/03/12 07:53:58;;;;;;;;;;;10.40;55.20;;;;;;5072382;28;19954;-91
2023/03/12 07:56:23;;;;;;;;;;;10.40;54.30;;;;;;5075925;28;20015;-90
2023/03/12 07:58:49;;;;;;;;;;;10.40;53.90;;;;;;5075938;28;20413;-91
2023/03/12 08:01:14;;;;;;;;;;;10.40;54.20;;;;;;5075407;28;19973;-90
2023/03/12 08:03:40;;;;;;;;;;;10.50;53.30;;;;;;5075317;28;20509;-90
2023/03/12 08:06:05;;;;;;;;;;;10.50;53.80;;;;;;5075738;28;19943;-90
2023/03/12 08:08:31;;;;;;;;;;;10.60;52.00;;;;;;5075685;28;19946;-91
2023/03/12 08:10:57;;;;;;;;;;;10.60;52.20;;;;;;5075309;28;19942;-90
2023/03/12 08:13:23;;;;;;;;;;;10.60;51.60;;;;;;5075379;28;19994;-91
2023/03/12 08:15:50;;;;;;;;;;;10.70;51.30;;;;;;5075558;28;20429;-91
2023/03/12 08:18:15;;;;;;;;;;;10.70;50.60;;;;;;5075491;28;19937;-91
2023/03/12 08:20:41;;;;;;;;;;;10.80;50.50;;;;;;5075480;28;19950;-91
2023/03/12 08:23:07;;;;;;;;;;;10.90;50.50;;;;;;5075135;28;19986;-91
2023/03/12 08:25:32;;;;;;;;;;;10.90;50.60;;;;;;5075693;28;19939;-91
2023/03/12 08:27:58;;;;;;;;;;;11.00;49.30;;;;;;5075363;28;19946;-91
2023/03/12 08:30:23;;;;;;;;;;;11.00;49.20;;;;;;5075313;28;19995;-91
2023/03/12 08:32:49;;;;;;;;;;;11.00;51.20;;;;;;5074651;28;20505;-91
2023/03/12 08:35:14;;;;;;;;;;;11.10;53.10;;;;;;5074376;28;20444;-91
2023/03/12 08:37:40;;;;;;;;;;;11.30;53.40;;;;;;5075142;28;19999;-92
2023/03/12 08:40:12;;;;;;;;;;;11.30;51.20;;;;;;5075160;28;19987;-91
2023/03/12 08:42:41;;;;;;;;;;;11.40;51.40;;;;;;5074558;28;20120;-91
2023/03/12 08:45:08;;;;;;;;;;;11.40;51.60;;;;;;5075041;28;19939;-91
2023/03/12 08:47:34;;;;;;;;;;;11.40;51.50;;;;;;5074989;28;19942;-91
2023/03/12 08:49:59;;;;;;;;;;;11.50;51.30;;;;;;5074547;28;20040;-91
2023/03/12 08:52:25;;;;;;;;;;;11.50;51.60;;;;;;5074855;28;20408;-91
2023/03/12 08:54:50;;;;;;;;;;;11.70;51.20;;;;;;5074871;28;20036;-91
2023/03/12 08:57:16;;;;;;;;;;;11.70;50.40;;;;;;5074801;28;19946;-91
2023/03/12 08:59:42;;;;;;;;;;;11.70;49.50;;;;;;5074509;28;19957;-91
2023/03/12 09:02:09;;;;;;;;;;;11.70;48.90;;;;;;5073231;28;19944;-91
2023/03/12 09:04:35;;;;;;;;;;;11.80;48.30;;;;;;5074436;28;19977;-91
2023/03/12 09:07:00;;;;;;;;;;;11.80;48.20;;;;;;5074626;28;19941;-91
2023/03/12 09:09:26;;;;;;;;;;;11.90;48.20;;;;;;5074518;28;19940;-91
2023/03/12 09:11:51;;;;;;;;;;;11.90;49.10;;;;;;5074494;28;19939;-91
2023/03/12 09:14:17;;;;;;;;;;;11.90;48.40;;;;;;5074428;28;19965;-91
2023/03/12 09:16:42;;;;;;;;;;;12.00;49.00;;;;;;5074371;28;20355;-91
2023/03/12 09:19:08;;;;;;;;;;;12.10;49.20;;;;;;5074095;28;19976;-91
2023/03/12 09:21:33;;;;;;;;;;;12.20;49.50;;;;;;5074341;28;20034;-91
2023/03/12 09:23:59;;;;;;;;;;;12.30;49.60;;;;;;5074217;28;19963;-92
2023/03/12 09:26:24;;;;;;;;;;;12.40;48.70;;;;;;5074216;28;19947;-91
2023/03/12 09:28:50;;;;;;;;;;;12.50;46.80;;;;;;5074168;28;19949;-90
2023/03/12 09:31:16;;;;;;;;;;;12.60;46.70;;;;;;5073838;28;19946;-91
2023/03/12 09:33:41;;;;;;;;;;;12.70;48.70;;;;;;5074124;28;20028;-91
2023/03/12 09:36:07;;;;;;;;;;;12.80;47.70;;;;;;5073990;28;19937;-91
2023/03/12 09:38:34;;;;;;;;;;;12.90;48.30;;;;;;5073966;28;20033;-91
2023/03/12 09:40:59;;;;;;;;;;;13.10;45.80;;;;;;5055566;28;19950;-91
2023/03/12 09:43:32;;;;;;;;;;;13.20;47.10;;;;;;5073821;28;19958;-91
2023/03/12 09:45:58;;;;;;;;;;;13.30;47.60;;;;;;5072111;28;19943;-91
2023/03/12 09:48:27;;;;;;;;;;;13.40;46.40;;;;;;5073795;28;20295;-91
2023/03/12 09:50:52;;;;;;;;;;;13.60;45.00;;;;;;5073654;28;19950;-91
2023/03/12 09:53:18;;;;;;;;;;;13.90;47.40;;;;;;5073610;28;20019;-91
2023/03/12 09:55:45;;;;;;;;;;;13.90;45.90;;;;;;5073611;28;20024;-91
2023/03/12 09:58:31;;;;;;;;;;;14.10;44.00;;;;;;5073832;28;20318;-91
2023/03/12 10:01:04;;;;;;;;;;;14.20;45.50;;;;;;5072894;28;19948;-91
2023/03/12 10:03:30;;;;;;;;;;;14.40;46.00;;;;;;5073212;28;20020;-90
2023/03/12 10:06:14;;;;;;;;;;;14.40;45.20;;;;;;5072202;28;19941;-91
2023/03/12 10:08:53;;;;;;;;;;;14.30;43.90;;;;;;5073420;28;19939;-90
2023/03/12 10:11:38;;;;;;;;;;;14.30;46.30;;;;;;5073157;28;20038;-91
2023/03/12 10:14:23;;;;;;;;;;;14.30;47.10;;;;;;5073353;28;19965;-91
2023/03/12 10:16:53;;;;;;;;;;;14.30;45.10;;;;;;5072873;28;20493;-92
2023/03/12 10:19:36;;;;;;;;;;;14.30;44.20;;;;;;5073156;28;20033;-91
2023/03/12 10:22:05;;;;;;;;;;;14.30;43.00;;;;;;5073246;28;19943;-91
2023/03/12 10:24:36;;;;;;;;;;;14.30;43.50;;;;;;5071848;28;20339;-91
2023/03/12 10:27:08;;;;;;;;;;;14.40;44.30;;;;;;5073237;28;20381;-91
2023/03/12 10:29:37;;;;;;;;;;;14.50;44.30;;;;;;5071432;28;19945;-91
2023/03/12 10:32:02;;;;;;;;;;;14.50;44.50;;;;;;5073151;28;19956;-91
2023/03/12 10:34:49;;;;;;;;;;;14.60;47.30;;;;;;5073146;28;20021;-90
2023/03/12 10:37:17;;;;;;;;;;;14.70;42.80;;;;;;5073124;28;20392;-91
2023/03/12 10:39:43;;;;;;;;;;;14.60;43.70;;;;;;5072831;28;19950;-91
2023/03/12 10:42:17;;;;;;;;;;;14.70;42.50;;;;;;5073016;28;19945;-91
2023/03/12 10:44:44;;;;;;;;;;;14.80;42.80;;;;;;5073088;28;19950;-92
2023/03/12 10:47:34;;;;;;;;;;;14.80;43.50;;;;;;5073007;28;19949;-91
2023/03/12 10:50:14;;;;;;;;;;;14.80;42.40;;;;;;5064780;28;19959;-91
2023/03/12 10:52:39;;;;;;;;;;;14.70;43.70;;;;;;5073100;28;19965;-92
2023/03/12 10:55:10;;;;;;;;;;;14.70;43.40;;;;;;5072986;28;20353;-90
2023/03/12 10:57:40;;;;;;;;;;;14.70;42.90;;;;;;5074952;28;19939;-91
2023/03/12 11:00:08;;;;;;;;;;;14.80;42.30;;;;;;5076604;28;19946;-90
2023/03/12 11:02:36;;;;;;;;;;;14.70;41.40;;;;;;5076822;28;19974;-90
2023/03/12 11:05:17;;;;;;;;;;;14.70;41.30;;;;;;5076844;28;19979;-91
2023/03/12 11:07:43;;;;;;;;;;;14.70;42.00;;;;;;5076721;28;19945;-90
2023/03/12 11:10:08;;;;;;;;;;;14.70;43.30;;;;;;5076757;28;19953;-90
2023/03/12 11:12:35;;;;;;;;;;;14.70;42.40;;;;;;5076819;28;20034;-91
2023/03/12 11:15:19;;;;;;;;;;;14.80;42.70;;;;;;5076785;28;19939;-91
2023/03/12 11:17:45;;;;;;;;;;;14.80;41.80;;;;;;5060064;28;19989;-90
2023/03/12 11:20:31;;;;;;;;;;;14.90;41.70;;;;;;5076633;28;20166;-90
2023/03/12 11:22:56;;;;;;;;;;;14.90;40.60;;;;;;5076135;28;19964;-90
2023/03/12 11:25:26;;;;;;;;;;;15.00;42.30;;;;;;5076556;28;19947;-91
2023/03/12 11:27:54;;;;;;;;;;;15.20;41.70;;;;;;5076212;28;19994;-91
2023/03/12 11:30:25;;;;;;;;;;;15.30;40.30;;;;;;5076443;28;19947;-91
2023/03/12 11:32:50;;;;;;;;;;;15.30;42.50;;;;;;5076402;28;19940;-91
2023/03/12 11:35:19;;;;;;;;;;;15.70;42.50;;;;;;5076370;28;19939;-91
2023/03/12 11:37:45;;;;;;;;;;;16.00;41.30;;;;;;5076316;28;19945;-92
2023/03/12 11:40:13;;;;;;;;;;;16.30;40.20;;;;;;5076003;28;20354;-91
2023/03/12 11:42:45;;;;;;;;;;;16.30;39.60;;;;;;5076145;28;20455;-91
2023/03/12 11:45:26;;;;;;;;;;;16.40;37.60;;;;;;5076150;28;19940;-90
2023/03/12 11:47:57;;;;;;;;;;;16.60;38.10;;;;;;5075901;28;19941;-91
2023/03/12 11:50:41;;;;;;;;;;;16.50;37.60;;;;;;5056333;28;20312;-91
2023/03/12 11:53:25;;;;;;;;;;;16.70;38.60;;;;;;5056010;28;19953;-90
2023/03/12 11:56:09;;;;;;;;;;;16.80;37.60;;;;;;5038047;28;20405;-91
2023/03/12 11:58:38;;;;;;;;;;;17.00;39.40;;;;;;5061967;28;19985;-91
2023/03/12 12:01:09;;;;;;;;;;;17.10;39.00;;;;;;5075816;28;20035;-91
2023/03/12 12:03:35;;;;;;;;;;;17.10;37.90;;;;;;5075665;28;20026;-91
2023/03/12 12:06:04;;;;;;;;;;;17.10;39.10;;;;;;5075890;28;20487;-90
2023/03/12 12:08:48;;;;;;;;;;;17.20;39.00;;;;;;5075172;28;19944;-91
2023/03/12 12:11:16;;;;;;;;;;;17.40;37.70;;;;;;5075718;28;20399;-91
2023/03/12 12:13:48;;;;;;;;;;;17.70;37.70;;;;;;5075702;28;20479;-91
2023/03/12 12:16:21;;;;;;;;;;;18.00;37.90;;;;;;5075889;28;19943;-91
2023/03/12 12:18:53;;;;;;;;;;;18.50;37.80;;;;;;5075654;28;19951;-90
2023/03/12 12:21:30;;;;;;;;;;;18.50;35.80;;;;;;5075566;28;19940;-90
2023/03/12 12:24:02;;;;;;;;;;;18.80;36.20;;;;;;5074186;28;19962;-91
2023/03/12 12:26:48;;;;;;;;;;;19.30;33.10;;;;;;5075442;28;19994;-91
2023/03/12 12:29:25;;;;;;;;;;;19.80;33.50;;;;;;5074522;28;19999;-91
2023/03/12 12:31:57;;;;;;;;;;;20.30;33.30;;;;;;5075354;28;20445;-91
2023/03/12 12:34:38;;;;;;;;;;;21.00;30.50;;;;;;5075327;28;19964;-91
2023/03/12 12:37:04;;;;;;;;;;;21.80;31.20;;;;;;5075206;28;20393;-92
2023/03/12 12:39:32;;;;;;;;;;;22.40;29.80;;;;;;5074762;28;19950;-91
2023/03/12 12:42:01;;;;;;;;;;;23.10;28.40;;;;;;5075230;28;20107;-91
2023/03/12 12:44:30;;;;;;;;;;;23.60;28.70;;;;;;5075074;28;19961;-90
2023/03/12 12:47:00;;;;;;;;;;;23.00;26.70;;;;;;5075058;28;19933;-91
2023/03/12 12:49:25;;;;;;;;;;;23.30;27.80;;;;;;5074817;28;19954;-90
2023/03/12 12:51:54;;;;;;;;;;;23.80;27.20;;;;;;5074964;28;19950;-90
2023/03/12 12:54:28;;;;;;;;;;;23.80;26.30;;;;;;5074861;28;19958;-91
2023/03/12 12:56:59;;;;;;;;;;;24.80;24.60;;;;;;5074782;28;19937;-91
2023/03/12 12:59:25;;;;;;;;;;;25.30;24.90;;;;;;5074507;28;19948;-91
2023/03/12 13:01:52;;;;;;;;;;;25.50;24.60;;;;;;5074897;28;19962;-91
2023/03/12 13:04:30;;;;;;;;;;;25.20;24.90;;;;;;5074499;28;19976;-91
2023/03/12 13:06:56;;;;;;;;;;;25.10;25.00;;;;;;5074632;28;20022;-91
2023/03/12 13:09:33;;;;;;;;;;;25.60;25.10;;;;;;5074404;28;20402;-91
2023/03/12 13:12:05;;;;;;;;;;;26.20;24.80;;;;;;5074553;28;19938;-92
2023/03/12 13:14:35;;;;;;;;;;;26.30;25.00;;;;;;5073205;28;20452;-91
2023/03/12 13:17:27;;;;;;;;;;;26.20;25.50;;;;;;5074426;28;19944;-91
2023/03/12 13:19:58;;;;;;;;;;;25.70;24.30;;;;;;5070255;28;19982;-91
2023/03/12 13:22:23;;;;;;;;;;;25.30;26.00;;;;;;5074291;28;19945;-91
2023/03/12 13:24:55;;;;;;;;;;;26.20;25.80;;;;;;5074462;28;20342;-91
2023/03/12 13:27:34;;;;;;;;;;;25.60;26.00;;;;;;5074280;28;20022;-90
2023/03/12 13:30:20;;;;;;;;;;;24.70;26.70;;;;;;5073987;28;19958;-90
2023/03/12 13:32:48;;;;;;;;;;;24.80;25.50;;;;;;5073967;28;19997;-90
2023/03/12 13:35:14;;;;;;;;;;;24.70;25.00;;;;;;5074094;28;20028;-91
2023/03/12 13:37:45;;;;;;;;;;;25.00;26.00;;;;;;5072821;28;20033;-91
2023/03/12 13:40:30;;;;;;;;;;;24.30;26.40;;;;;;5073998;28;19952;-90
2023/03/12 13:43:04;;;;;;;;;;;24.20;26.90;;;;;;5073894;28;19955;-91
2023/03/12 13:45:30;;;;;;;;;;;24.00;27.00;;;;;;5073858;28;19944;-91
2023/03/12 13:47:58;;;;;;;;;;;24.00;27.10;;;;;;5072611;28;19952;-91
2023/03/12 13:50:24;;;;;;;;;;;24.60;25.70;;;;;;5073429;28;19946;-91
2023/03/12 13:52:55;;;;;;;;;;;24.30;26.50;;;;;;5073726;28;20328;-91
2023/03/12 13:55:24;;;;;;;;;;;24.00;26.20;;;;;;5073747;28;19939;-91
2023/03/12 13:57:53;;;;;;;;;;;23.70;26.50;;;;;;5073688;28;20291;-90
2023/03/12 14:00:28;;;;;;;;;;;23.30;27.90;;;;;;5073396;28;19949;-90
2023/03/12 14:02:56;;;;;;;;;;;23.20;28.20;;;;;;5073313;28;19996;-90
2023/03/12 14:05:21;;;;;;;;;;;23.20;27.50;;;;;;5073547;28;19945;-91
2023/03/12 14:07:53;;;;;;;;;;;23.50;26.90;;;;;;5073797;28;19950;-91
2023/03/12 14:10:19;;;;;;;;;;;24.30;27.90;;;;;;5073186;28;19950;-91
2023/03/12 14:12:47;;;;;;;;;;;24.70;27.00;;;;;;5072110;28;19995;-90
2023/03/12 14:15:18;;;;;;;;;;;24.60;26.60;;;;;;5073365;28;20030;-90
2023/03/12 14:17:44;;;;;;;;;;;24.80;26.40;;;;;;5073393;28;19947;-91
2023/03/12 14:20:12;;;;;;;;;;;25.30;24.90;;;;;;5071942;28;19951;-91
2023/03/12 14:22:40;;;;;;;;;;;25.80;24.50;;;;;;5073486;28;19944;-91